sensor_id;sensor_type;location;lat;lon;timestamp;P1;durP1;ratioP1;P2;durP2;ratioP2
21878;SDS011;27908;42.708;23.278;2023-07-31T00:01:54;8.38;;;3.20;;
21878;SDS011;27908;42.708;23.278;2023-07-31T00:04:20;7.00;;;3.10;;
21878;SDS011;27908;42.708;23.278;2023-07-31T00:06:45;7.90;;;3.28;;
21878;SDS011;27908;42.708;23.278;2023-07-31T00:09:11;7.20;;;3.47;;
21878;SDS011;27908;42.708;23.278;2023-07-31T00:11:36;7.50;;;3.47;;
21878;SDS011;27908;42.708;23.278;2023-07-31T00:14:01;7.37;;;3.30;;
21878;SDS011;27908;42.708;23.278;2023-07-31T00:16:27;7.53;;;3.40;;
21878;SDS011;27908;42.708;23.278;2023-07-31T00:18:52;8.17;;;3.10;;
21878;SDS011;27908;42.708;23.278;2023-07-31T00:21:18;7.30;;;3.27;;
21878;SDS011;27908;42.708;23.278;2023-07-31T00:23:43;7.32;;;3.40;;
21878;SDS011;27908;42.708;23.278;2023-07-31T00:26:09;7.83;;;3.20;;
21878;SDS011;27908;42.708;23.278;2023-07-31T00:28:34;14.10;;;3.57;;
21878;SDS011;27908;42.708;23.278;2023-07-31T00:30:59;9.60;;;4.03;;
21878;SDS011;27908;42.708;23.278;2023-07-31T00:33:25;8.37;;;3.83;;
21878;SDS011;27908;42.708;23.278;2023-07-31T00:35:50;8.52;;;3.60;;
21878;SDS011;27908;42.708;23.278;2023-07-31T00:38:16;9.33;;;3.87;;
21878;SDS011;27908;42.708;23.278;2023-07-31T00:40:41;7.93;;;3.90;;
21878;SDS011;27908;42.708;23.278;2023-07-31T00:43:06;8.90;;;4.13;;
21878;SDS011;27908;42.708;23.278;2023-07-31T00:45:32;8.43;;;4.50;;
21878;SDS011;27908;42.708;23.278;2023-07-31T00:47:58;10.27;;;4.90;;
21878;SDS011;27908;42.708;23.278;2023-07-31T00:50:24;11.35;;;5.18;;
21878;SDS011;27908;42.708;23.278;2023-07-31T00:52:50;13.77;;;6.63;;
21878;SDS011;27908;42.708;23.278;2023-07-31T00:55:16;12.95;;;6.60;;
21878;SDS011;27908;42.708;23.278;2023-07-31T00:57:42;13.55;;;7.75;;
21878;SDS011;27908;42.708;23.278;2023-07-31T01:00:08;13.10;;;7.67;;
21878;SDS011;27908;42.708;23.278;2023-07-31T01:02:34;14.05;;;7.68;;
21878;SDS011;27908;42.708;23.278;2023-07-31T01:05:01;14.07;;;8.00;;
21878;SDS011;27908;42.708;23.278;2023-07-31T01:07:35;12.70;;;7.88;;
21878;SDS011;27908;42.708;23.278;2023-07-31T01:10:23;13.05;;;7.95;;
21878;SDS011;27908;42.708;23.278;2023-07-31T01:12:56;13.87;;;8.20;;
21878;SDS011;27908;42.708;23.278;2023-07-31T01:15:22;15.20;;;8.93;;
21878;SDS011;27908;42.708;23.278;2023-07-31T01:17:47;15.80;;;9.20;;
21878;SDS011;27908;42.708;23.278;2023-07-31T01:20:23;15.30;;;9.20;;
21878;SDS011;27908;42.708;23.278;2023-07-31T01:28:09;15.80;;;9.45;;
21878;SDS011;27908;42.708;23.278;2023-07-31T01:30:40;17.25;;;10.40;;
21878;SDS011;27908;42.708;23.278;2023-07-31T01:33:08;15.43;;;9.48;;
21878;SDS011;27908;42.708;23.278;2023-07-31T01:35:34;16.83;;;9.80;;
21878;SDS011;27908;42.708;23.278;2023-07-31T01:38:01;19.38;;;11.05;;
21878;SDS011;27908;42.708;23.278;2023-07-31T01:40:26;19.00;;;11.77;;
21878;SDS011;27908;42.708;23.278;2023-07-31T01:42:52;18.02;;;10.98;;
21878;SDS011;27908;42.708;23.278;2023-07-31T01:45:17;20.10;;;11.87;;
21878;SDS011;27908;42.708;23.278;2023-07-31T01:47:42;20.13;;;12.53;;
21878;SDS011;27908;42.708;23.278;2023-07-31T01:50:08;19.77;;;12.55;;
21878;SDS011;27908;42.708;23.278;2023-07-31T01:52:34;22.17;;;12.93;;
21878;SDS011;27908;42.708;23.278;2023-07-31T01:54:59;23.20;;;12.70;;
21878;SDS011;27908;42.708;23.278;2023-07-31T01:57:25;22.87;;;13.77;;
21878;SDS011;27908;42.708;23.278;2023-07-31T01:59:50;23.83;;;13.67;;
21878;SDS011;27908;42.708;23.278;2023-07-31T02:02:18;21.98;;;13.68;;
21878;SDS011;27908;42.708;23.278;2023-07-31T02:04:44;24.40;;;14.32;;
21878;SDS011;27908;42.708;23.278;2023-07-31T02:07:09;23.67;;;13.93;;
21878;SDS011;27908;42.708;23.278;2023-07-31T02:09:35;24.40;;;14.50;;
21878;SDS011;27908;42.708;23.278;2023-07-31T02:12:00;23.33;;;14.60;;
21878;SDS011;27908;42.708;23.278;2023-07-31T02:14:26;24.87;;;15.00;;
21878;SDS011;27908;42.708;23.278;2023-07-31T02:16:51;23.10;;;13.52;;
21878;SDS011;27908;42.708;23.278;2023-07-31T02:19:17;23.53;;;14.67;;
21878;SDS011;27908;42.708;23.278;2023-07-31T02:21:42;25.00;;;14.87;;
21878;SDS011;27908;42.708;23.278;2023-07-31T02:24:08;24.33;;;14.90;;
21878;SDS011;27908;42.708;23.278;2023-07-31T02:26:33;26.48;;;15.77;;
21878;SDS011;27908;42.708;23.278;2023-07-31T02:28:58;24.17;;;13.80;;
21878;SDS011;27908;42.708;23.278;2023-07-31T02:31:24;24.63;;;14.13;;
21878;SDS011;27908;42.708;23.278;2023-07-31T02:33:49;26.07;;;15.20;;
21878;SDS011;27908;42.708;23.278;2023-07-31T02:36:15;25.55;;;15.32;;
21878;SDS011;27908;42.708;23.278;2023-07-31T02:38:40;25.00;;;14.57;;
21878;SDS011;27908;42.708;23.278;2023-07-31T02:41:05;23.57;;;14.70;;
21878;SDS011;27908;42.708;23.278;2023-07-31T02:43:31;24.10;;;15.03;;
21878;SDS011;27908;42.708;23.278;2023-07-31T02:45:56;23.23;;;14.23;;
21878;SDS011;27908;42.708;23.278;2023-07-31T02:48:22;24.13;;;14.03;;
21878;SDS011;27908;42.708;23.278;2023-07-31T02:50:47;25.07;;;14.50;;
21878;SDS011;27908;42.708;23.278;2023-07-31T02:53:13;24.83;;;14.57;;
21878;SDS011;27908;42.708;23.278;2023-07-31T02:55:38;22.27;;;14.07;;
21878;SDS011;27908;42.708;23.278;2023-07-31T02:58:04;22.40;;;13.50;;
21878;SDS011;27908;42.708;23.278;2023-07-31T03:00:30;22.77;;;13.77;;
21878;SDS011;27908;42.708;23.278;2023-07-31T03:02:55;25.63;;;14.87;;
21878;SDS011;27908;42.708;23.278;2023-07-31T03:05:20;23.93;;;15.07;;
21878;SDS011;27908;42.708;23.278;2023-07-31T03:07:46;25.53;;;14.73;;
21878;SDS011;27908;42.708;23.278;2023-07-31T03:10:11;23.70;;;14.63;;
21878;SDS011;27908;42.708;23.278;2023-07-31T03:12:37;22.57;;;13.77;;
21878;SDS011;27908;42.708;23.278;2023-07-31T03:15:02;25.50;;;15.30;;
21878;SDS011;27908;42.708;23.278;2023-07-31T03:17:28;24.23;;;14.82;;
21878;SDS011;27908;42.708;23.278;2023-07-31T03:19:54;23.00;;;14.20;;
21878;SDS011;27908;42.708;23.278;2023-07-31T03:22:19;23.67;;;13.82;;
21878;SDS011;27908;42.708;23.278;2023-07-31T03:24:44;23.87;;;14.83;;
21878;SDS011;27908;42.708;23.278;2023-07-31T03:27:10;24.53;;;15.20;;
21878;SDS011;27908;42.708;23.278;2023-07-31T03:29:35;24.87;;;14.07;;
21878;SDS011;27908;42.708;23.278;2023-07-31T03:32:01;23.40;;;14.40;;
21878;SDS011;27908;42.708;23.278;2023-07-31T03:34:26;22.67;;;13.73;;
21878;SDS011;27908;42.708;23.278;2023-07-31T03:36:52;24.40;;;14.67;;
21878;SDS011;27908;42.708;23.278;2023-07-31T03:39:17;24.33;;;14.43;;
21878;SDS011;27908;42.708;23.278;2023-07-31T03:41:43;25.13;;;13.70;;
21878;SDS011;27908;42.708;23.278;2023-07-31T03:44:08;25.30;;;14.87;;
21878;SDS011;27908;42.708;23.278;2023-07-31T03:46:34;26.00;;;14.07;;
21878;SDS011;27908;42.708;23.278;2023-07-31T03:49:01;26.13;;;14.20;;
21878;SDS011;27908;42.708;23.278;2023-07-31T03:51:26;21.67;;;14.05;;
21878;SDS011;27908;42.708;23.278;2023-07-31T03:53:51;24.10;;;14.13;;
21878;SDS011;27908;42.708;23.278;2023-07-31T03:56:17;24.13;;;14.90;;
21878;SDS011;27908;42.708;23.278;2023-07-31T03:58:42;23.97;;;13.93;;
21878;SDS011;27908;42.708;23.278;2023-07-31T04:01:08;28.07;;;15.80;;
21878;SDS011;27908;42.708;23.278;2023-07-31T04:03:33;26.63;;;15.63;;
21878;SDS011;27908;42.708;23.278;2023-07-31T04:05:58;29.13;;;15.70;;
21878;SDS011;27908;42.708;23.278;2023-07-31T04:08:24;25.20;;;14.10;;
21878;SDS011;27908;42.708;23.278;2023-07-31T04:10:49;25.63;;;14.33;;
21878;SDS011;27908;42.708;23.278;2023-07-31T04:13:15;27.63;;;15.00;;
21878;SDS011;27908;42.708;23.278;2023-07-31T04:15:41;26.80;;;14.97;;
21878;SDS011;27908;42.708;23.278;2023-07-31T04:18:06;24.40;;;13.95;;
21878;SDS011;27908;42.708;23.278;2023-07-31T04:20:32;24.53;;;14.83;;
21878;SDS011;27908;42.708;23.278;2023-07-31T04:22:57;27.17;;;15.57;;
21878;SDS011;27908;42.708;23.278;2023-07-31T04:25:23;24.48;;;13.85;;
21878;SDS011;27908;42.708;23.278;2023-07-31T04:27:48;25.80;;;14.60;;
21878;SDS011;27908;42.708;23.278;2023-07-31T04:30:14;27.47;;;14.57;;
21878;SDS011;27908;42.708;23.278;2023-07-31T04:32:39;25.07;;;14.50;;
21878;SDS011;27908;42.708;23.278;2023-07-31T04:35:05;23.90;;;13.80;;
21878;SDS011;27908;42.708;23.278;2023-07-31T04:37:30;26.80;;;14.37;;
21878;SDS011;27908;42.708;23.278;2023-07-31T04:39:56;24.73;;;14.13;;
21878;SDS011;27908;42.708;23.278;2023-07-31T04:42:21;25.93;;;14.10;;
21878;SDS011;27908;42.708;23.278;2023-07-31T04:44:47;21.93;;;13.00;;
21878;SDS011;27908;42.708;23.278;2023-07-31T04:47:12;23.63;;;13.57;;
21878;SDS011;27908;42.708;23.278;2023-07-31T04:49:38;23.50;;;13.83;;
21878;SDS011;27908;42.708;23.278;2023-07-31T04:52:05;23.45;;;13.88;;
21878;SDS011;27908;42.708;23.278;2023-07-31T04:54:30;25.30;;;12.87;;
21878;SDS011;27908;42.708;23.278;2023-07-31T04:56:56;27.08;;;14.25;;
21878;SDS011;27908;42.708;23.278;2023-07-31T04:59:21;25.73;;;13.93;;
21878;SDS011;27908;42.708;23.278;2023-07-31T05:01:47;24.83;;;13.87;;
21878;SDS011;27908;42.708;23.278;2023-07-31T05:04:13;20.13;;;12.47;;
21878;SDS011;27908;42.708;23.278;2023-07-31T05:06:39;22.25;;;12.70;;
21878;SDS011;27908;42.708;23.278;2023-07-31T05:09:05;23.67;;;12.30;;
21878;SDS011;27908;42.708;23.278;2023-07-31T05:11:30;22.20;;;11.93;;
21878;SDS011;27908;42.708;23.278;2023-07-31T05:13:55;22.27;;;12.33;;
21878;SDS011;27908;42.708;23.278;2023-07-31T05:16:21;18.60;;;11.80;;
21878;SDS011;27908;42.708;23.278;2023-07-31T05:18:47;20.15;;;11.27;;
21878;SDS011;27908;42.708;23.278;2023-07-31T05:21:12;19.70;;;11.40;;
21878;SDS011;27908;42.708;23.278;2023-07-31T05:23:38;25.73;;;11.83;;
21878;SDS011;27908;42.708;23.278;2023-07-31T05:26:04;21.42;;;11.73;;
21878;SDS011;27908;42.708;23.278;2023-07-31T05:28:34;19.10;;;11.10;;
21878;SDS011;27908;42.708;23.278;2023-07-31T05:31:01;20.33;;;10.40;;
21878;SDS011;27908;42.708;23.278;2023-07-31T05:33:27;16.15;;;9.77;;
21878;SDS011;27908;42.708;23.278;2023-07-31T05:35:53;19.10;;;9.27;;
21878;SDS011;27908;42.708;23.278;2023-07-31T05:38:18;17.63;;;8.85;;
21878;SDS011;27908;42.708;23.278;2023-07-31T05:40:44;13.10;;;7.43;;
21878;SDS011;27908;42.708;23.278;2023-07-31T05:43:09;16.77;;;8.40;;
21878;SDS011;27908;42.708;23.278;2023-07-31T05:45:35;12.95;;;7.72;;
21878;SDS011;27908;42.708;23.278;2023-07-31T05:48:01;13.70;;;7.47;;
21878;SDS011;27908;42.708;23.278;2023-07-31T05:50:28;12.27;;;6.57;;
21878;SDS011;27908;42.708;23.278;2023-07-31T05:52:53;12.07;;;7.13;;
21878;SDS011;27908;42.708;23.278;2023-07-31T05:55:19;12.38;;;6.68;;
21878;SDS011;27908;42.708;23.278;2023-07-31T05:57:44;12.20;;;6.60;;
21878;SDS011;27908;42.708;23.278;2023-07-31T06:00:11;13.90;;;6.43;;
21878;SDS011;27908;42.708;23.278;2023-07-31T06:02:37;13.07;;;6.68;;
21878;SDS011;27908;42.708;23.278;2023-07-31T06:05:03;12.47;;;6.67;;
21878;SDS011;27908;42.708;23.278;2023-07-31T06:07:31;12.38;;;5.90;;
21878;SDS011;27908;42.708;23.278;2023-07-31T06:09:56;10.57;;;5.33;;
21878;SDS011;27908;42.708;23.278;2023-07-31T06:12:27;10.75;;;4.97;;
21878;SDS011;27908;42.708;23.278;2023-07-31T06:14:52;11.40;;;4.93;;
21878;SDS011;27908;42.708;23.278;2023-07-31T06:17:17;10.73;;;4.68;;
21878;SDS011;27908;42.708;23.278;2023-07-31T06:19:43;8.17;;;4.17;;
21878;SDS011;27908;42.708;23.278;2023-07-31T06:22:09;8.57;;;4.30;;
21878;SDS011;27908;42.708;23.278;2023-07-31T06:24:34;10.90;;;4.47;;
21878;SDS011;27908;42.708;23.278;2023-07-31T06:26:59;10.70;;;4.30;;
21878;SDS011;27908;42.708;23.278;2023-07-31T06:29:25;12.23;;;4.63;;
21878;SDS011;27908;42.708;23.278;2023-07-31T06:31:50;9.13;;;4.90;;
21878;SDS011;27908;42.708;23.278;2023-07-31T06:34:16;9.57;;;4.77;;
21878;SDS011;27908;42.708;23.278;2023-07-31T06:36:42;11.03;;;4.80;;
21878;SDS011;27908;42.708;23.278;2023-07-31T06:39:07;7.53;;;3.90;;
21878;SDS011;27908;42.708;23.278;2023-07-31T06:41:34;9.27;;;4.35;;
21878;SDS011;27908;42.708;23.278;2023-07-31T06:43:59;9.93;;;4.00;;
21878;SDS011;27908;42.708;23.278;2023-07-31T06:46:24;9.03;;;4.27;;
21878;SDS011;27908;42.708;23.278;2023-07-31T06:48:50;7.93;;;3.50;;
21878;SDS011;27908;42.708;23.278;2023-07-31T06:51:16;9.00;;;3.35;;
21878;SDS011;27908;42.708;23.278;2023-07-31T06:53:41;7.50;;;3.40;;
21878;SDS011;27908;42.708;23.278;2023-07-31T06:56:07;6.55;;;2.80;;
21878;SDS011;27908;42.708;23.278;2023-07-31T06:58:33;8.93;;;3.60;;
21878;SDS011;27908;42.708;23.278;2023-07-31T07:00:58;8.23;;;3.10;;
21878;SDS011;27908;42.708;23.278;2023-07-31T07:03:24;9.65;;;3.80;;
21878;SDS011;27908;42.708;23.278;2023-07-31T07:05:50;7.87;;;3.20;;
21878;SDS011;27908;42.708;23.278;2023-07-31T07:08:15;7.07;;;3.63;;
21878;SDS011;27908;42.708;23.278;2023-07-31T07:10:41;9.07;;;3.35;;
21878;SDS011;27908;42.708;23.278;2023-07-31T07:13:07;6.77;;;2.80;;
21878;SDS011;27908;42.708;23.278;2023-07-31T07:15:32;6.50;;;2.70;;
21878;SDS011;27908;42.708;23.278;2023-07-31T07:17:58;6.70;;;2.80;;
21878;SDS011;27908;42.708;23.278;2023-07-31T07:20:23;7.30;;;3.20;;
21878;SDS011;27908;42.708;23.278;2023-07-31T07:22:49;8.93;;;3.20;;
21878;SDS011;27908;42.708;23.278;2023-07-31T07:25:14;7.53;;;2.97;;
21878;SDS011;27908;42.708;23.278;2023-07-31T07:27:40;7.95;;;3.22;;
21878;SDS011;27908;42.708;23.278;2023-07-31T07:30:05;7.13;;;2.80;;
21878;SDS011;27908;42.708;23.278;2023-07-31T07:32:31;9.90;;;3.20;;
21878;SDS011;27908;42.708;23.278;2023-07-31T07:34:57;6.90;;;2.90;;
21878;SDS011;27908;42.708;23.278;2023-07-31T07:37:22;8.30;;;3.30;;
21878;SDS011;27908;42.708;23.278;2023-07-31T07:39:47;7.70;;;3.30;;
21878;SDS011;27908;42.708;23.278;2023-07-31T07:42:13;7.97;;;2.85;;
21878;SDS011;27908;42.708;23.278;2023-07-31T07:44:38;6.80;;;3.10;;
21878;SDS011;27908;42.708;23.278;2023-07-31T07:47:04;7.60;;;2.77;;
21878;SDS011;27908;42.708;23.278;2023-07-31T07:49:33;6.75;;;2.85;;
21878;SDS011;27908;42.708;23.278;2023-07-31T07:51:59;8.30;;;3.00;;
21878;SDS011;27908;42.708;23.278;2023-07-31T07:54:25;6.80;;;2.70;;
21878;SDS011;27908;42.708;23.278;2023-07-31T07:56:50;7.77;;;3.07;;
21878;SDS011;27908;42.708;23.278;2023-07-31T07:59:16;7.40;;;3.03;;
21878;SDS011;27908;42.708;23.278;2023-07-31T08:01:41;7.73;;;3.17;;
21878;SDS011;27908;42.708;23.278;2023-07-31T08:04:06;6.60;;;2.90;;
21878;SDS011;27908;42.708;23.278;2023-07-31T08:06:32;7.50;;;2.67;;
21878;SDS011;27908;42.708;23.278;2023-07-31T08:08:57;9.03;;;3.40;;
21878;SDS011;27908;42.708;23.278;2023-07-31T08:11:23;8.10;;;2.90;;
21878;SDS011;27908;42.708;23.278;2023-07-31T08:13:48;7.20;;;3.20;;
21878;SDS011;27908;42.708;23.278;2023-07-31T08:16:14;6.30;;;2.90;;
21878;SDS011;27908;42.708;23.278;2023-07-31T08:18:40;7.33;;;3.00;;
21878;SDS011;27908;42.708;23.278;2023-07-31T08:21:07;8.60;;;2.92;;
21878;SDS011;27908;42.708;23.278;2023-07-31T08:23:32;8.47;;;3.20;;
21878;SDS011;27908;42.708;23.278;2023-07-31T08:25:58;9.90;;;3.30;;
21878;SDS011;27908;42.708;23.278;2023-07-31T08:28:23;7.70;;;2.90;;
21878;SDS011;27908;42.708;23.278;2023-07-31T08:30:49;10.80;;;3.10;;
21878;SDS011;27908;42.708;23.278;2023-07-31T08:33:15;7.07;;;2.75;;
21878;SDS011;27908;42.708;23.278;2023-07-31T08:35:41;8.00;;;3.00;;
21878;SDS011;27908;42.708;23.278;2023-07-31T08:38:06;8.38;;;2.78;;
21878;SDS011;27908;42.708;23.278;2023-07-31T08:40:32;7.30;;;2.83;;
21878;SDS011;27908;42.708;23.278;2023-07-31T08:43:01;8.35;;;2.80;;
21878;SDS011;27908;42.708;23.278;2023-07-31T08:45:27;6.57;;;2.83;;
21878;SDS011;27908;42.708;23.278;2023-07-31T08:47:53;7.70;;;2.70;;
21878;SDS011;27908;42.708;23.278;2023-07-31T08:50:22;6.55;;;2.40;;
21878;SDS011;27908;42.708;23.278;2023-07-31T08:52:49;5.97;;;2.50;;
21878;SDS011;27908;42.708;23.278;2023-07-31T08:55:15;8.57;;;2.80;;
21878;SDS011;27908;42.708;23.278;2023-07-31T08:57:41;7.07;;;2.58;;
21878;SDS011;27908;42.708;23.278;2023-07-31T09:00:08;6.85;;;2.90;;
21878;SDS011;27908;42.708;23.278;2023-07-31T09:02:38;6.38;;;2.60;;
21878;SDS011;27908;42.708;23.278;2023-07-31T09:05:11;5.93;;;2.42;;
21878;SDS011;27908;42.708;23.278;2023-07-31T09:07:37;8.57;;;2.83;;
21878;SDS011;27908;42.708;23.278;2023-07-31T09:10:04;9.32;;;2.70;;
21878;SDS011;27908;42.708;23.278;2023-07-31T09:12:30;9.02;;;2.50;;
21878;SDS011;27908;42.708;23.278;2023-07-31T09:14:59;6.87;;;2.70;;
21878;SDS011;27908;42.708;23.278;2023-07-31T09:17:32;7.93;;;2.63;;
21878;SDS011;27908;42.708;23.278;2023-07-31T09:22:44;7.57;;;2.78;;
21878;SDS011;27908;42.708;23.278;2023-07-31T09:25:17;7.30;;;3.00;;
21878;SDS011;27908;42.708;23.278;2023-07-31T09:30:16;6.40;;;2.58;;
21878;SDS011;27908;42.708;23.278;2023-07-31T09:32:43;7.03;;;2.35;;
21878;SDS011;27908;42.708;23.278;2023-07-31T09:37:55;6.10;;;2.58;;
21878;SDS011;27908;42.708;23.278;2023-07-31T09:40:26;7.43;;;2.50;;
21878;SDS011;27908;42.708;23.278;2023-07-31T09:42:52;6.75;;;2.20;;
21878;SDS011;27908;42.708;23.278;2023-07-31T09:45:18;6.18;;;2.55;;
21878;SDS011;27908;42.708;23.278;2023-07-31T09:47:47;7.00;;;2.42;;
21878;SDS011;27908;42.708;23.278;2023-07-31T09:50:16;5.95;;;2.42;;
21878;SDS011;27908;42.708;23.278;2023-07-31T09:52:41;8.43;;;2.40;;
21878;SDS011;27908;42.708;23.278;2023-07-31T09:55:08;5.82;;;2.25;;
21878;SDS011;27908;42.708;23.278;2023-07-31T09:57:35;6.95;;;2.20;;
21878;SDS011;27908;42.708;23.278;2023-07-31T10:00:04;6.20;;;1.90;;
21878;SDS011;27908;42.708;23.278;2023-07-31T10:02:31;6.60;;;2.17;;
21878;SDS011;27908;42.708;23.278;2023-07-31T10:04:57;6.57;;;2.22;;
21878;SDS011;27908;42.708;23.278;2023-07-31T10:07:27;6.65;;;2.03;;
21878;SDS011;27908;42.708;23.278;2023-07-31T10:09:55;7.30;;;2.25;;
21878;SDS011;27908;42.708;23.278;2023-07-31T10:12:25;5.83;;;2.20;;
21878;SDS011;27908;42.708;23.278;2023-07-31T10:14:54;5.85;;;2.13;;
21878;SDS011;27908;42.708;23.278;2023-07-31T10:17:24;6.95;;;2.00;;
21878;SDS011;27908;42.708;23.278;2023-07-31T10:19:50;6.25;;;2.38;;
21878;SDS011;27908;42.708;23.278;2023-07-31T10:22:16;9.50;;;2.20;;
21878;SDS011;27908;42.708;23.278;2023-07-31T10:24:43;5.95;;;2.20;;
21878;SDS011;27908;42.708;23.278;2023-07-31T10:27:10;5.78;;;2.05;;
21878;SDS011;27908;42.708;23.278;2023-07-31T10:29:37;5.25;;;1.92;;
21878;SDS011;27908;42.708;23.278;2023-07-31T10:32:04;5.63;;;2.08;;
21878;SDS011;27908;42.708;23.278;2023-07-31T10:34:33;6.00;;;2.40;;
21878;SDS011;27908;42.708;23.278;2023-07-31T10:39:54;6.13;;;2.45;;
21878;SDS011;27908;42.708;23.278;2023-07-31T10:42:28;6.15;;;2.10;;
21878;SDS011;27908;42.708;23.278;2023-07-31T10:44:58;7.35;;;2.20;;
21878;SDS011;27908;42.708;23.278;2023-07-31T10:47:25;5.80;;;2.00;;
21878;SDS011;27908;42.708;23.278;2023-07-31T10:49:51;5.82;;;2.03;;
21878;SDS011;27908;42.708;23.278;2023-07-31T10:52:20;5.57;;;1.90;;
21878;SDS011;27908;42.708;23.278;2023-07-31T10:55:12;6.25;;;1.83;;
21878;SDS011;27908;42.708;23.278;2023-07-31T10:57:39;5.50;;;1.92;;
21878;SDS011;27908;42.708;23.278;2023-07-31T11:02:58;11.27;;;2.10;;
21878;SDS011;27908;42.708;23.278;2023-07-31T11:08:44;6.77;;;1.80;;
21878;SDS011;27908;42.708;23.278;2023-07-31T11:11:19;5.40;;;1.80;;
21878;SDS011;27908;42.708;23.278;2023-07-31T11:13:46;5.38;;;1.83;;
21878;SDS011;27908;42.708;23.278;2023-07-31T11:16:16;5.75;;;1.95;;
21878;SDS011;27908;42.708;23.278;2023-07-31T11:18:43;6.07;;;2.10;;
21878;SDS011;27908;42.708;23.278;2023-07-31T11:21:17;7.63;;;2.70;;
21878;SDS011;27908;42.708;23.278;2023-07-31T11:23:47;6.18;;;2.17;;
21878;SDS011;27908;42.708;23.278;2023-07-31T11:26:14;5.55;;;1.80;;
21878;SDS011;27908;42.708;23.278;2023-07-31T11:28:41;5.55;;;1.70;;
21878;SDS011;27908;42.708;23.278;2023-07-31T11:31:09;5.65;;;1.90;;
21878;SDS011;27908;42.708;23.278;2023-07-31T11:33:35;6.70;;;2.33;;
21878;SDS011;27908;42.708;23.278;2023-07-31T11:36:01;6.70;;;2.75;;
21878;SDS011;27908;42.708;23.278;2023-07-31T11:41:00;6.75;;;2.45;;
21878;SDS011;27908;42.708;23.278;2023-07-31T11:43:32;6.80;;;2.45;;
21878;SDS011;27908;42.708;23.278;2023-07-31T11:45:59;9.33;;;2.23;;
21878;SDS011;27908;42.708;23.278;2023-07-31T11:48:29;6.72;;;2.47;;
21878;SDS011;27908;42.708;23.278;2023-07-31T11:50:58;7.57;;;2.40;;
21878;SDS011;27908;42.708;23.278;2023-07-31T11:53:27;6.93;;;2.92;;
21878;SDS011;27908;42.708;23.278;2023-07-31T11:56:06;6.88;;;2.45;;
21878;SDS011;27908;42.708;23.278;2023-07-31T11:58:34;6.30;;;2.40;;
21878;SDS011;27908;42.708;23.278;2023-07-31T12:01:00;7.13;;;3.17;;
21878;SDS011;27908;42.708;23.278;2023-07-31T12:03:27;8.88;;;3.42;;
21878;SDS011;27908;42.708;23.278;2023-07-31T12:05:53;7.70;;;3.70;;
21878;SDS011;27908;42.708;23.278;2023-07-31T12:08:20;7.57;;;3.78;;
21878;SDS011;27908;42.708;23.278;2023-07-31T12:10:47;7.63;;;3.47;;
21878;SDS011;27908;42.708;23.278;2023-07-31T12:13:25;8.25;;;3.72;;
21878;SDS011;27908;42.708;23.278;2023-07-31T12:15:55;8.65;;;3.90;;
21878;SDS011;27908;42.708;23.278;2023-07-31T12:18:22;7.50;;;4.20;;
21878;SDS011;27908;42.708;23.278;2023-07-31T12:20:49;8.05;;;3.50;;
21878;SDS011;27908;42.708;23.278;2023-07-31T12:23:21;7.10;;;3.40;;
21878;SDS011;27908;42.708;23.278;2023-07-31T12:28:50;10.13;;;3.45;;
21878;SDS011;27908;42.708;23.278;2023-07-31T12:31:20;8.20;;;3.30;;
21878;SDS011;27908;42.708;23.278;2023-07-31T12:33:47;8.25;;;3.30;;
21878;SDS011;27908;42.708;23.278;2023-07-31T12:36:15;8.20;;;3.40;;
21878;SDS011;27908;42.708;23.278;2023-07-31T12:38:42;7.82;;;3.50;;
21878;SDS011;27908;42.708;23.278;2023-07-31T12:41:08;8.43;;;3.77;;
21878;SDS011;27908;42.708;23.278;2023-07-31T12:43:34;8.15;;;4.00;;
21878;SDS011;27908;42.708;23.278;2023-07-31T12:46:01;9.18;;;4.07;;
21878;SDS011;27908;42.708;23.278;2023-07-31T12:48:26;9.20;;;4.17;;
21878;SDS011;27908;42.708;23.278;2023-07-31T12:50:52;8.98;;;4.53;;
21878;SDS011;27908;42.708;23.278;2023-07-31T12:53:17;9.20;;;3.80;;
21878;SDS011;27908;42.708;23.278;2023-07-31T12:55:43;9.60;;;4.03;;
21878;SDS011;27908;42.708;23.278;2023-07-31T12:58:08;8.93;;;4.00;;
21878;SDS011;27908;42.708;23.278;2023-07-31T13:00:34;9.90;;;4.37;;
21878;SDS011;27908;42.708;23.278;2023-07-31T13:03:00;9.90;;;4.17;;
21878;SDS011;27908;42.708;23.278;2023-07-31T13:05:26;8.38;;;4.07;;
21878;SDS011;27908;42.708;23.278;2023-07-31T13:07:52;7.55;;;3.35;;
21878;SDS011;27908;42.708;23.278;2023-07-31T13:10:17;8.20;;;3.70;;
21878;SDS011;27908;42.708;23.278;2023-07-31T13:12:43;8.52;;;3.83;;
21878;SDS011;27908;42.708;23.278;2023-07-31T13:15:09;16.10;;;3.87;;
21878;SDS011;27908;42.708;23.278;2023-07-31T13:17:35;7.68;;;3.17;;
21878;SDS011;27908;42.708;23.278;2023-07-31T13:20:00;9.43;;;3.77;;
21878;SDS011;27908;42.708;23.278;2023-07-31T13:22:26;6.95;;;3.28;;
21878;SDS011;27908;42.708;23.278;2023-07-31T13:24:51;7.67;;;3.20;;
21878;SDS011;27908;42.708;23.278;2023-07-31T13:27:17;6.60;;;3.00;;
21878;SDS011;27908;42.708;23.278;2023-07-31T13:29:44;7.07;;;3.80;;
21878;SDS011;27908;42.708;23.278;2023-07-31T13:32:10;8.18;;;3.47;;
21878;SDS011;27908;42.708;23.278;2023-07-31T13:34:36;7.88;;;3.17;;
21878;SDS011;27908;42.708;23.278;2023-07-31T13:37:02;6.70;;;2.97;;
21878;SDS011;27908;42.708;23.278;2023-07-31T13:39:27;8.47;;;3.10;;
21878;SDS011;27908;42.708;23.278;2023-07-31T13:41:53;7.85;;;3.05;;
21878;SDS011;27908;42.708;23.278;2023-07-31T13:44:18;7.27;;;3.10;;
21878;SDS011;27908;42.708;23.278;2023-07-31T13:46:44;8.27;;;3.20;;
21878;SDS011;27908;42.708;23.278;2023-07-31T13:49:09;9.43;;;3.37;;
21878;SDS011;27908;42.708;23.278;2023-07-31T13:51:35;6.80;;;2.77;;
21878;SDS011;27908;42.708;23.278;2023-07-31T13:54:00;8.00;;;3.30;;
21878;SDS011;27908;42.708;23.278;2023-07-31T13:56:26;7.07;;;2.70;;
21878;SDS011;27908;42.708;23.278;2023-07-31T13:58:52;6.63;;;2.60;;
21878;SDS011;27908;42.708;23.278;2023-07-31T14:01:17;7.25;;;2.95;;
21878;SDS011;27908;42.708;23.278;2023-07-31T14:03:43;7.43;;;2.93;;
21878;SDS011;27908;42.708;23.278;2023-07-31T14:06:08;7.77;;;3.10;;
21878;SDS011;27908;42.708;23.278;2023-07-31T14:08:34;9.20;;;3.20;;
21878;SDS011;27908;42.708;23.278;2023-07-31T14:10:59;7.00;;;3.10;;
21878;SDS011;27908;42.708;23.278;2023-07-31T14:13:24;7.80;;;3.10;;
21878;SDS011;27908;42.708;23.278;2023-07-31T14:15:50;7.33;;;3.20;;
21878;SDS011;27908;42.708;23.278;2023-07-31T14:18:15;7.60;;;3.57;;
21878;SDS011;27908;42.708;23.278;2023-07-31T14:20:41;6.90;;;3.40;;
21878;SDS011;27908;42.708;23.278;2023-07-31T14:23:06;9.30;;;3.00;;
21878;SDS011;27908;42.708;23.278;2023-07-31T14:25:31;9.20;;;3.00;;
21878;SDS011;27908;42.708;23.278;2023-07-31T14:27:57;9.60;;;3.40;;
21878;SDS011;27908;42.708;23.278;2023-07-31T14:30:22;9.18;;;3.08;;
21878;SDS011;27908;42.708;23.278;2023-07-31T14:32:48;7.37;;;3.13;;
21878;SDS011;27908;42.708;23.278;2023-07-31T14:35:13;6.40;;;3.00;;
21878;SDS011;27908;42.708;23.278;2023-07-31T14:37:43;6.18;;;2.60;;
21878;SDS011;27908;42.708;23.278;2023-07-31T14:40:10;7.53;;;3.08;;
21878;SDS011;27908;42.708;23.278;2023-07-31T14:42:37;6.77;;;2.70;;
21878;SDS011;27908;42.708;23.278;2023-07-31T14:45:03;8.88;;;3.20;;
21878;SDS011;27908;42.708;23.278;2023-07-31T14:47:30;7.35;;;2.78;;
21878;SDS011;27908;42.708;23.278;2023-07-31T14:49:59;10.10;;;2.80;;